Madison Heights, VA (24572)

11:34 PM EST del 02 Dicembre 2016 (GMT -0500)
Concord Turnpike | | Change Station

Alt. 543 ft 37.40 °N, 79.11 °W | Updated 1 minute ago

Partly Cloudy
Parzialmente nuvoloso
42.8 °F
Sembra 41 °F
N
3.2
Vento Variabile Vento da SO
Gusts 7.3 mph

Oggi
Massima -- | Minima -- °F
--% Possibilità di precip.
Ieri
Massima -- | Minima -- °F
Precip. -- in
Pressione 30.19 in
Visibilità 10.0 miglia
Nuvole Alcuni 4200 ft
Raffreddamento del vento 41 °F
Punto di rugiada 27 °F
Umidità 53%
Piovosità 0.00 in
Spessore del manto nevoso Non disponibile.
7:13 AM 4:58 PM
Luna crescente, 12% visible
METAR KLYH 030354Z AUTO 28004KT 10SM FEW042 03/M02 A3018 RMK AO2 SLP223 T00331022
Pressione 30.19 in
Visibilità 10.0 miglia
Nuvole Alcuni 4200 ft
Raffreddamento del vento 41 °F
Punto di rugiada 27 °F
Umidità 53%
Piovosità 0.00 in
Spessore del manto nevoso Non disponibile.
7:13 AM 4:58 PM
Luna crescente, 12% visible
METAR KLYH 030354Z AUTO 28004KT 10SM FEW042 03/M02 A3018 RMK AO2 SLP223 T00331022

10-Day Weather Forecast

Almanac

Astronomia

Dec. 02, 2016 Alba Tramonto
Ora attuale
Crepuscolo civile
Crepuscolo nautico
Crepuscolo astronomico
Luna
Estensione della luce visibile
Lunghezza del giorno
Tomorrow will be .
, % of the Moon is Illuminated

Gli estremi di oggi

State Highs State Lows

Community

WunderPhotos

Upload Photos

1,955,411 foto caricate!

WunderBlog® & News

Nearby

Qualità dell'aria

  Qualità dell'aria Indice AQ Inquinante
Not available.

Profondità neve

Stazione Profondità Altitudine

Attività sismica

Città  Distanza Mag. Data & Ora
Minimo Magnitudo Mostrato è 2.5.

Temperature delle acque costiere

Località Temperatura

Stations

Stazioni meteo nelle vicinanze

Ubicazione della stazione Temp. Raffreddamento del vento Punto di rugiada Umidità Vento Precip. Alt. Aggiornato Tipo
                   

Watches & Warnings

There are currently no watches in effect.